Latest Weather Observations for Charles Point

IDD60901

Issued at 12:41 pm CST Wednesday 1 April 2015 (issued every 10 minutes, with the page automatically refreshed every 10 minutes)

About weather observations | Map of Darwin area stations | Latest observations for Darwin area | Other Formats
Station Details ID: 014031 Name: CHARLES POINT Lat: -12.39 Lon: 130.63 Height: 14.0 m
Data from the previous 72 hours. | See also: Recent months for locations in Northern Territory
Date/Time
CST
Tmp

°C
App
Tmp
°C
Dew
Point
°C
Rel
Hum
%
Delta-T

°C
Wind Press
QNH
hPa
Press
MSL
hPa
Rain
since
9 am
mm
Dir
 
Spd
km/h
Gust
km/h
Spd
kts
Gust
kts
01/12:30pm 31.1 35.7 24.7 68 4.5 NNW 9 13 5 7 1011.2 1011.1 0.0
01/12:00pm 30.8 35.2 24.4 68 4.5 N 9 11 5 6 1011.6 1011.5 0.0
01/11:30am 30.7 35.2 24.6 70 4.3 N 9 13 5 7 1012.2 1012.1 0.0
01/11:00am 30.8 35.9 24.9 71 4.1 N 7 9 4 5 1012.5 1012.4 0.0
01/10:30am 30.7 36.1 25.1 72 3.9 NNE 6 7 3 4 1012.8 1012.7 0.0
01/10:00am 30.1 35.5 24.5 72 3.9 NNE 4 6 2 3 1012.8 1012.7 0.0
01/09:30am 29.9 34.8 24.3 72 3.9 NNE 6 6 3 3 1012.7 1012.6 0.0
01/09:00am 30.1 35.6 24.0 70 4.2 ESE 2 4 1 2 1012.8 1012.7 0.0
01/08:30am 29.5 35.4 24.1 72 3.7 CALM 0 2 0 1 1012.6 1012.5 0.0
01/08:00am 27.5 33.6 25.1 87 1.7 S 2 4 1 2 1012.4 1012.3 0.0
01/07:30am 25.9 30.8 24.3 91 1.1 S 6 7 3 4 1012.1 1012.0 0.0
01/07:00am 25.3 29.7 23.5 90 1.2 S 6 7 3 4 1011.8 1011.7 0.0
01/06:30am 25.3 29.7 23.5 90 1.2 S 6 7 3 4 1011.4 1011.3 0.0
01/06:00am 25.4 29.7 23.6 90 1.2 S 7 9 4 5 1011.2 1011.1 0.0
01/05:30am 25.4 29.8 23.8 91 1.1 S 7 7 4 4 1011.1 1011.0 0.0
01/05:00am 25.6 30.0 23.8 90 1.2 S 7 9 4 5 1011.0 1010.9 0.0
01/04:30am 25.4 29.6 23.5 89 1.3 S 7 9 4 5 1010.8 1010.7 0.0
01/04:00am 25.6 29.8 23.5 88 1.4 S 7 9 4 5 1010.6 1010.5 0.0
01/03:30am 25.2 29.4 23.4 90 1.2 S 7 9 4 5 1010.7 1010.6 0.0
01/03:00am 25.3 29.5 23.5 90 1.2 S 7 9 4 5 1010.9 1010.8 0.0
01/02:30am 25.2 29.6 23.8 92 1.0 S 7 9 4 5 1011.0 1010.9 0.0
01/02:00am 25.2 29.9 24.0 93 0.8 S 6 6 3 3 1011.1 1011.0 0.0
01/01:30am 25.4 31.2 24.0 92 1.0 CALM 0 0 0 0 1011.3 1011.2 0.0
01/01:00am 25.6 31.4 24.0 91 1.1 CALM 0 0 0 0 1011.5 1011.4 0.0
01/12:30am 26.0 31.8 24.0 89 1.4 CALM 0 0 0 0 1011.6 1011.5 0.0
01/12:00am 26.6 32.2 24.3 87 1.6 ENE 2 6 1 3 1011.7 1011.6 0.0
 
Date/Time
CST
Tmp

°C
App
Tmp
°C
Dew
Point
°C
Rel
Hum
%
Delta-T

°C
Wind Press
QNH
hPa
Press
MSL
hPa
Rain
since
9 am
mm
Dir
 
Spd
km/h
Gust
km/h
Spd
kts
Gust
kts
31/11:30pm 27.3 33.1 24.0 82 2.3 CALM 0 4 0 2 1011.8 1011.7 0.0
31/11:00pm 29.2 34.0 24.1 74 3.5 NNE 6 9 3 5 1012.0 1011.9 0.0
31/10:30pm 29.6 34.2 24.2 73 3.8 NNE 7 11 4 6 1012.0 1011.9 0.0
31/10:00pm 29.9 33.4 23.6 69 4.3 NE 11 15 6 8 1011.9 1011.8 0.0
31/09:30pm 29.8 33.7 24.2 72 3.9 NE 11 17 6 9 1011.8 1011.7 0.0
31/09:00pm 29.9 33.3 23.3 67 4.5 NE 11 17 6 9 1011.5 1011.4 0.0
31/08:30pm 30.0 33.3 23.9 70 4.2 NE 13 17 7 9 1011.3 1011.2 0.0
31/08:00pm 30.0 33.3 23.9 70 4.2 NE 13 19 7 10 1011.1 1011.0 0.0
31/07:30pm 30.1 32.8 23.5 67 4.6 NE 15 20 8 11 1010.8 1010.7 0.0
31/07:00pm 30.2 32.8 23.9 69 4.4 NE 17 20 9 11 1010.4 1010.3 0.0
31/06:30pm 30.5 33.3 23.7 67 4.7 NE 15 20 8 11 1010.2 1010.1 0.0
31/06:00pm 30.9 32.4 23.0 62 5.4 NE 20 28 11 15 1010.0 1009.9 0.0
31/05:30pm 31.1 34.2 23.5 64 5.3 NE 13 20 7 11 1010.0 1009.9 0.0
31/05:00pm 31.5 35.3 24.1 65 5.2 NE 11 17 6 9 1009.8 1009.7 0.0
31/04:30pm 30.8 34.4 24.4 68 4.5 NNE 13 20 7 11 1009.6 1009.5 0.0
31/04:00pm 31.5 34.8 23.9 64 5.3 NNE 13 17 7 9 1009.7 1009.6 0.0
31/03:30pm 31.4 34.1 23.5 63 5.5 NE 15 19 8 10 1009.7 1009.6 0.0
31/03:00pm 31.5 35.6 24.6 67 4.8 NNE 11 17 6 9 1009.9 1009.8 0.0
31/02:30pm 31.0 35.1 23.9 66 4.9 NNE 9 17 5 9 1010.2 1010.1 0.0
31/02:00pm 31.9 36.0 24.5 65 5.2 NNE 11 17 6 9 1010.5 1010.4 0.0
31/01:30pm 31.6 36.4 24.5 66 5.0 NNE 7 11 4 6 1010.9 1010.8 0.0
31/01:00pm 31.1 35.7 24.2 66 4.8 NNE 7 11 4 6 1011.4 1011.3 0.0
31/12:30pm 30.9 35.2 24.3 68 4.6 NNE 9 13 5 7 1011.9 1011.8 0.0
31/12:00pm 30.7 35.3 24.1 68 4.6 NE 7 9 4 5 1012.5 1012.4 0.0
31/11:30am 30.8 35.1 23.7 66 4.9 NE 7 9 4 5 1012.8 1012.7 0.0
31/11:00am 31.0 35.3 23.6 64 5.1 ENE 7 13 4 7 1013.1 1013.0 0.0
31/10:30am 30.8 35.0 23.5 65 5.0 ENE 7 13 4 7 1013.3 1013.2 0.0
31/10:00am 30.2 34.0 23.4 67 4.7 E 9 13 5 7 1013.5 1013.4 0.0
31/09:30am 29.4 33.6 23.4 70 4.1 ESE 7 11 4 6 1013.5 1013.4 0.0
31/09:00am 29.1 33.5 23.5 72 3.9 SE 6 7 3 4 1013.7 1013.6 0.2
31/08:30am 28.2 32.3 22.9 73 3.6 SE 6 9 3 5 1013.5 1013.4 0.2
31/08:00am 27.6 31.5 23.0 76 3.1 SSE 7 9 4 5 1013.1 1013.0 0.2
31/07:30am 26.2 29.9 22.5 80 2.5 SSE 7 13 4 7 1012.8 1012.7 0.2
31/07:00am 25.5 29.0 22.2 82 2.2 SSE 7 9 4 5 1012.5 1012.4 0.2
31/06:30am 25.5 29.0 22.2 82 2.2 SSE 7 11 4 6 1012.3 1012.2 0.2
31/06:00am 25.6 29.3 22.5 83 2.1 S 7 11 4 6 1012.1 1012.0 0.2
31/05:30am 25.5 29.2 22.6 84 2.0 S 7 11 4 6 1011.6 1011.5 0.2
31/05:00am 25.5 28.8 22.6 84 2.0 S 9 11 5 6 1011.3 1011.2 0.2
31/04:30am 25.4 29.2 22.7 85 1.8 S 7 9 4 5 1011.2 1011.1 0.2
31/04:00am 25.3 28.8 22.8 86 1.7 S 9 13 5 7 1011.2 1011.1 0.2
31/03:30am 25.4 29.0 23.1 87 1.6 S 9 13 5 7 1011.3 1011.2 0.2
31/03:00am 26.1 30.2 23.2 84 2.0 S 7 9 4 5 1011.3 1011.2 0.2
31/02:30am 28.3 32.7 23.4 75 3.4 E 6 9 3 5 1011.5 1011.4 0.2
31/02:00am 28.8 32.9 23.2 71 3.8 ENE 7 13 4 7 1011.7 1011.6 0.2
31/01:30am 28.9 32.9 23.1 71 4.0 ENE 7 13 4 7 1012.0 1011.9 0.2
31/01:00am 29.5 32.4 23.2 69 4.3 NE 13 17 7 9 1012.3 1012.2 0.2
31/12:30am 29.6 32.6 23.3 69 4.3 NE 13 20 7 11 1012.6 1012.5 0.2
31/12:00am 29.3 32.8 23.5 71 4.0 NE 11 17 6 9 1012.7 1012.6 0.2
 
Date/Time
CST
Tmp

°C
App
Tmp
°C
Dew
Point
°C
Rel
Hum
%
Delta-T

°C
Wind Press
QNH
hPa
Press
MSL
hPa
Rain
since
9 am
mm
Dir
 
Spd
km/h
Gust
km/h
Spd
kts
Gust
kts
30/11:30pm 29.5 32.7 23.0 68 4.4 NE 11 17 6 9 1012.9 1012.8 0.2
30/11:00pm 29.4 32.8 23.4 70 4.1 NE 11 15 6 8 1012.9 1012.8 0.2
30/10:30pm 29.1 33.2 23.3 71 4.0 ENE 7 15 4 8 1013.0 1012.9 0.2
30/10:00pm 29.1 33.1 23.1 70 4.1 ENE 7 15 4 8 1012.8 1012.7 0.2
30/09:30pm 29.4 32.6 23.1 69 4.3 ENE 11 17 6 9 1012.7 1012.6 0.2
30/09:00pm 29.7 33.0 23.2 68 4.5 NE 11 19 6 10 1012.5 1012.4 0.2
30/08:30pm 29.7 32.2 23.2 68 4.5 ENE 15 22 8 12 1012.2 1012.1 0.2
30/08:00pm 29.8 32.1 23.5 69 4.3 NE 17 24 9 13 1011.8 1011.7 0.2
30/07:30pm 29.9 31.7 22.6 65 5.0 NE 17 24 9 13 1011.5 1011.4 0.2
30/07:00pm 30.0 31.6 23.2 67 4.7 NE 20 28 11 15 1011.2 1011.1 0.2
30/06:30pm 30.2 31.6 22.9 65 5.0 NE 20 30 11 16 1010.9 1010.8 0.2
30/06:00pm 30.3 31.5 23.2 65 4.9 NE 22 32 12 17 1010.8 1010.7 0.2
30/05:30pm 30.4 32.0 23.8 68 4.6 NE 22 32 12 17 1010.6 1010.5 0.2
30/05:00pm 30.6 31.8 23.8 67 4.7 NE 24 33 13 18 1010.5 1010.4 0.2
30/04:30pm 30.6 32.0 23.5 66 4.9 NE 22 32 12 17 1010.6 1010.5 0.2
30/04:00pm 30.8 32.7 23.7 66 4.9 NE 20 30 11 16 1010.6 1010.5 0.2
30/03:30pm 30.9 33.2 24.5 68 4.5 NE 20 28 11 15 1010.7 1010.6 0.2
30/03:00pm 31.2 33.5 24.1 66 5.0 NE 19 24 10 13 1010.6 1010.5 0.2
30/02:30pm 31.7 34.5 23.0 60 6.0 NE 13 17 7 9 1010.8 1010.7 0.2
30/02:00pm 31.7 34.5 23.0 60 6.0 NE 13 17 7 9 1011.1 1011.0 0.2
30/01:30pm 31.7 35.0 23.2 60 5.9 NE 11 17 6 9 1011.3 1011.2 0.2
30/01:00pm 31.6 36.0 24.5 66 5.0 NE 9 13 5 7 1011.6 1011.5 0.2
30/12:30pm 31.2 35.5 24.3 66 4.8 NE 9 13 5 7 1012.0 1011.9 0.2
30/12:00pm 31.3 35.7 24.4 66 4.8 ENE 9 15 5 8 1012.6 1012.5 0.2
30/11:30am 30.6 34.5 24.3 69 4.4 ENE 11 19 6 10 1012.9 1012.8 0.2
30/11:00am 30.4 34.3 24.3 70 4.3 ENE 11 19 6 10 1013.2 1013.1 0.2
30/10:30am 30.7 34.9 24.8 71 4.1 E 11 17 6 9 1013.3 1013.2 0.2
30/10:00am 30.4 34.7 24.3 70 4.3 E 9 15 5 8 1013.4 1013.3 0.2
30/09:30am 29.9 33.8 24.3 72 3.9 ESE 11 17 6 9 1013.5 1013.4 0.0
30/09:00am 29.7 34.0 24.3 73 3.8 ESE 9 17 5 9 1013.4 1013.3 0.2
30/08:30am 29.3 34.4 24.6 76 3.3 E 6 9 3 5 1012.9 1012.8 0.2
30/08:00am 28.2 33.0 24.4 80 2.6 ESE 7 11 4 6 1012.7 1012.6 0.2
30/07:30am 26.4 31.3 24.4 89 1.4 ESE 6 9 3 5 1012.2 1012.1 0.2
30/07:00am 25.5 30.5 23.9 91 1.1 ESE 4 6 2 3 1011.9 1011.8 0.2
30/06:30am 25.5 30.2 23.9 91 1.1 SE 6 7 3 4 1011.5 1011.4 0.2
30/06:00am 25.7 30.6 24.3 92 1.0 ESE 6 9 3 5 1011.3 1011.2 0.2
30/05:30am 25.1 29.6 23.9 93 0.8 SE 7 9 4 5 1011.1 1011.0 0.2
30/05:00am 24.3 28.6 23.3 94 0.7 SSE 6 6 3 3 1011.0 1010.9 0.2
30/04:30am 24.4 28.8 23.4 94 0.7 S 6 7 3 4 1010.8 1010.7 0.2
30/04:00am 24.5 28.8 23.3 93 0.8 SSE 6 7 3 4 1010.9 1010.8 0.2
30/03:30am 24.7 29.5 23.5 93 0.8 SSE 4 6 2 3 1011.1 1011.0 0.2
30/03:00am 24.9 29.7 23.5 92 1.0 SSE 4 6 2 3 1011.2 1011.1 0.2
30/02:30am 25.2 29.6 23.4 90 1.2 SSE 6 7 3 4 1011.3 1011.2 0.2
30/02:00am 25.4 29.9 23.6 90 1.2 SSE 6 7 3 4 1011.7 1011.6 0.2
30/01:30am 25.4 29.9 23.6 90 1.2 S 6 7 3 4 1012.1 1012.0 0.2
30/01:00am 25.7 30.4 23.9 90 1.2 SSE 6 9 3 5 1012.4 1012.3 0.2
30/12:30am 25.5 30.2 23.9 91 1.1 SSE 6 7 3 4 1012.7 1012.6 0.2
30/12:00am 25.6 30.7 24.0 91 1.1 SE 4 6 2 3 1013.0 1012.9 0.2
 
Date/Time
CST
Tmp

°C
App
Tmp
°C
Dew
Point
°C
Rel
Hum
%
Delta-T

°C
Wind Press
QNH
hPa
Press
MSL
hPa
Rain
since
9 am
mm
Dir
 
Spd
km/h
Gust
km/h
Spd
kts
Gust
kts
29/11:30pm 25.9 31.2 24.3 91 1.1 SSE 4 4 2 2 1013.2 1013.1 0.2
29/11:00pm 25.9 31.0 24.1 90 1.2 SSE 4 6 2 3 1013.2 1013.1 0.2
29/10:30pm 26.2 31.5 24.4 90 1.2 S 4 6 2 3 1013.4 1013.3 0.2
29/10:00pm 26.4 31.9 24.6 90 1.2 S 4 6 2 3 1013.3 1013.2 0.2
29/09:30pm 26.6 31.9 24.3 87 1.6 S 4 6 2 3 1013.1 1013.0 0.2
29/09:00pm 27.2 32.8 24.3 84 2.0 SSE 2 4 1 2 1012.8 1012.7 0.2
29/08:30pm 28.1 33.2 24.1 79 2.8 E 4 6 2 3 1012.4 1012.3 0.2
29/08:00pm 29.9 33.5 23.8 70 4.2 NE 11 15 6 8 1012.0 1011.9 0.2
29/07:30pm 29.8 33.0 23.7 70 4.2 NE 13 17 7 9 1011.7 1011.6 0.2
29/07:00pm 29.6 33.5 24.2 73 3.8 NE 11 17 6 9 1011.4 1011.3 0.2
29/06:30pm 29.6 33.1 24.2 73 3.8 NE 13 19 7 10 1010.9 1010.8 0.2
29/06:00pm 30.0 33.1 24.2 71 4.0 NNE 15 20 8 11 1010.7 1010.6 0.2
29/05:30pm 30.1 33.8 24.5 72 3.9 NNE 13 19 7 10 1010.4 1010.3 0.2
29/05:00pm 29.3 33.2 24.2 74 3.5 NE 11 17 6 9 1010.4 1010.3 0.2
29/04:30pm 30.4 33.9 24.8 72 3.9 NNE 15 20 8 11 1010.3 1010.2 0.2
29/04:00pm 30.3 33.5 24.9 73 3.8 NNE 17 20 9 11 1010.3 1010.2 0.2
29/03:30pm 30.7 34.9 24.8 71 4.1 N 11 15 6 8 1010.4 1010.3 0.2
29/03:00pm 30.8 35.4 24.7 70 4.3 NNE 9 13 5 7 1010.5 1010.4 0.2
29/02:30pm 30.6 35.4 24.5 70 4.3 NNE 7 11 4 6 1010.8 1010.7 0.2
29/02:00pm 30.5 35.0 24.6 70 4.1 NNE 9 11 5 6 1011.2 1011.1 0.2
29/01:30pm 30.7 35.6 24.6 70 4.3 NE 7 11 4 6 1011.6 1011.5 0.2
29/01:00pm 30.7 35.1 24.4 69 4.4 NE 9 15 5 8 1012.1 1012.0 0.2

Latest Capital City Observations: Canberra | Sydney | Melbourne | Brisbane | Adelaide | Perth | Hobart | Darwin

Other Formats:

Comma delimited format used in spreadsheet applications
http://www.bom.gov.au/fwo/IDD60901/IDD60901.99510.axf

JavaScript Object Notation format (JSON) in row-major order
http://www.bom.gov.au/fwo/IDD60901/IDD60901.99510.json